createdAt,value
2023-01-17T00:02:13.581Z,11.55
2023-01-17T00:04:58.967Z,10.82
2023-01-17T00:07:44.804Z,11.25
2023-01-17T00:10:17.367Z,11.30
2023-01-17T00:12:52.864Z,12.88
2023-01-17T00:15:21.102Z,11.88
2023-01-17T00:17:49.104Z,12.07
2023-01-17T00:20:36.050Z,9.93
2023-01-17T00:23:45.638Z,9.45
2023-01-17T00:26:18.671Z,10.35
2023-01-17T00:28:47.434Z,7.20
2023-01-17T00:31:16.105Z,8.88
2023-01-17T00:33:43.315Z,6.53
2023-01-17T00:36:10.861Z,6.65
2023-01-17T00:38:39.403Z,6.88
2023-01-17T00:41:11.800Z,6.68
2023-01-17T00:43:57.210Z,6.50
2023-01-17T00:46:42.855Z,7.00
2023-01-17T00:49:28.375Z,6.22
2023-01-17T00:52:13.786Z,6.85
2023-01-17T00:54:59.200Z,6.03
2023-01-17T00:57:44.708Z,6.43
2023-01-17T01:00:30.700Z,6.07
2023-01-17T01:03:16.319Z,5.90
2023-01-17T01:06:01.552Z,6.07
2023-01-17T01:08:48.237Z,6.07
2023-01-17T01:11:36.668Z,6.00
2023-01-17T01:14:23.093Z,5.40
2023-01-17T01:17:08.592Z,5.70
2023-01-17T01:19:53.957Z,5.72
2023-01-17T01:22:39.710Z,6.22
2023-01-17T01:25:25.202Z,5.97
2023-01-17T01:28:10.620Z,6.78
2023-01-17T01:30:56.120Z,6.45
2023-01-17T01:33:22.940Z,6.13
2023-01-17T01:35:55.095Z,6.22
2023-01-17T01:38:24.617Z,5.95
2023-01-17T01:40:54.267Z,6.35
2023-01-17T01:43:41.160Z,7.05
2023-01-17T01:46:10.011Z,6.32
2023-01-17T01:48:42.541Z,6.63
2023-01-17T01:51:19.144Z,6.55
2023-01-17T01:53:49.784Z,7.43
2023-01-17T01:56:18.437Z,7.03
2023-01-17T01:58:48.467Z,6.97
2023-01-17T02:01:16.074Z,7.68
2023-01-17T02:03:44.513Z,7.70
2023-01-17T02:06:35.275Z,7.15
2023-01-17T02:09:06.205Z,8.10
2023-01-17T02:11:34.658Z,7.70
2023-01-17T02:14:01.800Z,7.57
2023-01-17T02:19:48.618Z,6.78
2023-01-17T02:22:37.370Z,7.85
2023-01-17T02:25:10.314Z,6.60
2023-01-17T02:28:07.335Z,7.50
2023-01-17T02:30:34.266Z,8.32
2023-01-17T02:33:10.490Z,7.60
2023-01-17T02:35:37.377Z,7.43
2023-01-17T02:38:22.974Z,7.50
2023-01-17T02:40:57.804Z,7.78
2023-01-17T02:43:25.895Z,7.25
2023-01-17T02:45:52.758Z,7.97
2023-01-17T02:48:24.778Z,7.43
2023-01-17T02:51:26.164Z,7.10
2023-01-17T02:54:03.811Z,7.38
2023-01-17T02:57:02.317Z,7.55
2023-01-17T03:00:03.836Z,7.97
2023-01-17T03:03:03.783Z,7.32
2023-01-17T03:05:46.563Z,7.72
2023-01-17T03:08:14.658Z,7.60
2023-01-17T03:10:42.708Z,7.72
2023-01-17T03:13:09.949Z,7.60
2023-01-17T03:15:36.968Z,7.18
2023-01-17T03:18:12.745Z,7.65
2023-01-17T03:20:39.936Z,6.72
2023-01-17T03:23:07.141Z,7.43
2023-01-17T03:25:34.201Z,6.93
2023-01-17T03:28:01.086Z,7.25
2023-01-17T03:30:28.247Z,7.45
2023-01-17T03:32:55.090Z,7.47
2023-01-17T03:35:21.950Z,7.25
2023-01-17T03:37:48.949Z,8.02
2023-01-17T03:40:16.000Z,9.18
2023-01-17T03:42:43.197Z,8.13
2023-01-17T03:45:10.534Z,7.50
2023-01-17T03:47:37.382Z,8.20
2023-01-17T03:50:04.856Z,8.27
2023-01-17T03:52:32.333Z,7.75
2023-01-17T03:54:59.634Z,7.93
2023-01-17T03:57:26.542Z,7.53
2023-01-17T03:59:53.367Z,7.60
2023-01-17T04:02:20.319Z,7.65
2023-01-17T04:04:47.158Z,7.10
2023-01-17T04:07:14.037Z,6.90
2023-01-17T04:09:40.888Z,7.15
2023-01-17T04:12:09.451Z,6.82
2023-01-17T04:14:36.368Z,7.32
2023-01-17T04:17:04.189Z,7.25
2023-01-17T04:19:33.976Z,7.93
2023-01-17T04:24:27.683Z,7.90
2023-01-17T04:26:54.600Z,9.50
2023-01-17T04:29:21.538Z,8.57
2023-01-17T04:31:48.774Z,9.25
2023-01-17T04:34:15.686Z,8.68
2023-01-17T04:36:42.544Z,8.25
2023-01-17T04:39:09.554Z,9.73
2023-01-17T04:41:36.381Z,10.90
2023-01-17T04:44:04.299Z,9.15
2023-01-17T04:46:31.455Z,8.43
2023-01-17T04:48:59.234Z,8.95
2023-01-17T04:51:26.136Z,9.25
2023-01-17T04:53:53.012Z,9.20
2023-01-17T04:56:19.946Z,9.65
2023-01-17T04:58:46.865Z,9.00
2023-01-17T05:01:13.921Z,9.05
2023-01-17T05:03:40.880Z,13.52
2023-01-17T05:06:07.748Z,15.65
2023-01-17T05:08:34.646Z,17.35
2023-01-17T05:11:01.553Z,12.40
2023-01-17T05:13:28.449Z,14.07
2023-01-17T05:15:57.292Z,13.35
2023-01-17T05:18:24.776Z,12.40
2023-01-17T05:20:51.615Z,11.68
2023-01-17T05:23:18.670Z,12.75
2023-01-17T05:25:45.535Z,14.50
2023-01-17T05:28:13.283Z,11.40
2023-01-17T05:30:40.451Z,9.57
2023-01-17T05:33:08.231Z,10.57
2023-01-17T05:35:35.130Z,10.85
2023-01-17T05:38:02.383Z,9.43
2023-01-17T05:40:31.379Z,9.35
2023-01-17T05:42:59.902Z,10.55
2023-01-17T05:45:28.976Z,9.27
2023-01-17T05:47:57.253Z,10.38
2023-01-17T05:50:30.446Z,9.82
2023-01-17T05:53:00.128Z,8.55
2023-01-17T05:57:55.455Z,9.35
2023-01-17T06:00:23.594Z,9.43
2023-01-17T06:02:57.178Z,9.15
2023-01-17T06:05:24.735Z,14.88
2023-01-17T06:07:51.831Z,9.82
2023-01-17T06:10:21.061Z,12.90
2023-01-17T06:12:48.985Z,13.82
2023-01-17T06:15:18.364Z,18.95
2023-01-17T06:17:45.271Z,16.13
2023-01-17T06:20:12.849Z,16.25
2023-01-17T06:22:39.825Z,16.63
2023-01-17T06:25:07.399Z,18.80
2023-01-17T06:27:34.389Z,16.38
2023-01-17T06:30:01.470Z,15.57
2023-01-17T06:32:28.489Z,17.73
2023-01-17T06:34:55.438Z,18.52
2023-01-17T06:37:22.345Z,21.70
2023-01-17T06:39:49.252Z,24.48
2023-01-17T06:42:16.266Z,21.67
2023-01-17T06:44:43.212Z,19.38
2023-01-17T06:47:10.068Z,22.52
2023-01-17T06:49:37.032Z,25.75
2023-01-17T06:52:04.210Z,23.10
2023-01-17T06:54:31.187Z,20.92
2023-01-17T06:57:00.695Z,21.83
2023-01-17T06:59:27.945Z,20.77
2023-01-17T07:01:59.024Z,26.13
2023-01-17T07:04:25.864Z,22.88
2023-01-17T07:06:53.039Z,29.88
2023-01-17T07:09:19.901Z,25.20
2023-01-17T07:11:50.841Z,27.13
2023-01-17T07:14:17.783Z,23.38
2023-01-17T07:16:46.159Z,25.95
2023-01-17T07:19:13.300Z,24.38
2023-01-17T07:21:40.873Z,24.80
2023-01-17T07:24:09.102Z,24.02
2023-01-17T07:26:40.268Z,30.13
2023-01-17T07:29:07.133Z,31.73
2023-01-17T07:31:36.702Z,34.42
2023-01-17T07:34:03.731Z,28.27
2023-01-17T07:36:30.657Z,29.50
2023-01-17T07:38:57.612Z,32.17
2023-01-17T07:41:24.625Z,33.30
2023-01-17T07:43:51.419Z,31.20
2023-01-17T07:46:18.707Z,34.38
2023-01-17T07:48:45.610Z,33.03
2023-01-17T07:51:12.624Z,31.27
2023-01-17T07:53:39.522Z,30.65
2023-01-17T07:56:07.747Z,29.67
2023-01-17T07:58:35.760Z,32.05
2023-01-17T08:01:08.568Z,35.05
2023-01-17T08:03:39.820Z,45.20
2023-01-17T08:06:29.281Z,37.88
2023-01-17T08:08:58.913Z,31.77
2023-01-17T08:11:25.984Z,32.75
2023-01-17T08:13:57.560Z,30.77
2023-01-17T08:16:28.528Z,28.45
2023-01-17T08:18:59.621Z,26.05
2023-01-17T08:21:26.497Z,29.58
2023-01-17T08:23:53.419Z,34.95
2023-01-17T08:26:22.200Z,35.20
2023-01-17T08:28:55.031Z,33.50
2023-01-17T08:31:22.435Z,34.97
2023-01-17T08:33:53.115Z,37.50
2023-01-17T08:36:20.074Z,38.00
2023-01-17T08:38:47.111Z,36.63
2023-01-17T08:41:14.062Z,34.75
2023-01-17T08:43:40.920Z,41.08
2023-01-17T08:46:07.759Z,43.92
2023-01-17T08:48:34.731Z,40.88
2023-01-17T08:51:02.814Z,42.55
2023-01-17T08:53:29.926Z,43.00
2023-01-17T08:56:01.360Z,44.58
2023-01-17T08:58:30.590Z,44.75
2023-01-17T09:01:06.243Z,48.78
2023-01-17T09:03:34.650Z,45.00
2023-01-17T09:06:12.865Z,40.85
2023-01-17T09:08:40.721Z,47.65
2023-01-17T09:11:12.633Z,44.67
2023-01-17T09:13:40.550Z,46.88
2023-01-17T09:16:07.751Z,44.38
2023-01-17T09:18:35.690Z,47.28
2023-01-17T09:21:14.699Z,41.95
2023-01-17T09:23:42.156Z,44.83
2023-01-17T09:26:18.826Z,47.08
2023-01-17T09:28:45.886Z,49.03
2023-01-17T09:31:12.735Z,45.33
2023-01-17T09:33:42.667Z,43.53
2023-01-17T09:36:10.916Z,42.83
2023-01-17T09:38:38.576Z,41.15
2023-01-17T09:41:19.930Z,42.63
2023-01-17T09:43:55.704Z,41.88
2023-01-17T09:46:32.542Z,39.90
2023-01-17T09:49:09.891Z,44.45
2023-01-17T09:51:37.267Z,41.30
2023-01-17T09:54:04.872Z,41.88
2023-01-17T09:56:37.422Z,40.15
2023-01-17T09:59:35.361Z,43.03
2023-01-17T10:02:10.084Z,40.47
2023-01-17T10:05:18.080Z,39.63
2023-01-17T10:08:18.422Z,33.55
2023-01-17T10:11:10.410Z,35.55
2023-01-17T10:13:37.303Z,33.13
2023-01-17T10:16:25.479Z,36.90
2023-01-17T10:18:58.646Z,33.90
2023-01-17T10:21:37.591Z,36.22
2023-01-17T10:24:58.699Z,36.73
2023-01-17T10:27:30.410Z,33.47
2023-01-17T10:29:58.643Z,32.45
2023-01-17T10:32:29.634Z,26.52
2023-01-17T10:35:02.219Z,27.63
2023-01-17T10:37:44.042Z,22.15
2023-01-17T10:40:27.908Z,21.55
2023-01-17T10:43:04.861Z,24.80
2023-01-17T10:45:43.536Z,24.50
2023-01-17T10:48:37.252Z,23.53
2023-01-17T10:51:21.958Z,24.85
2023-01-17T10:54:21.347Z,24.75
2023-01-17T10:56:48.204Z,24.75
2023-01-17T10:59:33.566Z,29.13
2023-01-17T11:02:06.814Z,29.90
2023-01-17T11:04:40.378Z,28.52
2023-01-17T11:07:17.179Z,31.38
2023-01-17T11:09:51.369Z,39.60
2023-01-17T11:12:20.303Z,35.55
2023-01-17T11:15:10.479Z,34.72
2023-01-17T11:17:45.902Z,33.78
2023-01-17T11:20:23.580Z,33.05
2023-01-17T11:23:22.995Z,33.75
2023-01-17T11:25:57.881Z,31.55
2023-01-17T11:28:33.861Z,32.38
2023-01-17T11:31:04.295Z,31.48
2023-01-17T11:33:48.291Z,31.98
2023-01-17T11:36:19.405Z,26.13
2023-01-17T11:38:59.173Z,25.48
2023-01-17T11:43:59.440Z,24.30
2023-01-17T11:46:30.684Z,25.95
2023-01-17T11:48:59.837Z,28.35
2023-01-17T11:51:31.844Z,28.38
2023-01-17T11:54:22.959Z,29.77
2023-01-17T11:56:51.814Z,34.67
2023-01-17T11:59:26.804Z,31.40
2023-01-17T12:02:15.576Z,39.35
2023-01-17T12:04:57.448Z,35.03
2023-01-17T12:07:24.299Z,33.80
2023-01-17T12:10:12.560Z,38.92
2023-01-17T12:13:19.969Z,36.10
2023-01-17T12:15:55.610Z,32.00
2023-01-17T12:18:46.220Z,36.78
2023-01-17T12:21:16.523Z,34.35
2023-01-17T12:24:08.076Z,30.27
2023-01-17T12:26:37.675Z,27.85
2023-01-17T12:29:31.867Z,28.40
2023-01-17T12:32:01.887Z,26.58
2023-01-17T12:34:51.040Z,29.67
2023-01-17T12:37:34.547Z,28.30
2023-01-17T12:40:18.573Z,29.73
2023-01-17T12:42:54.873Z,33.10
2023-01-17T12:45:28.461Z,35.85
2023-01-17T12:48:04.115Z,32.92
2023-01-17T12:50:55.205Z,36.08
2023-01-17T12:53:31.645Z,35.67
2023-01-17T12:56:28.588Z,32.63
2023-01-17T12:59:15.686Z,31.75
2023-01-17T13:01:57.232Z,33.90
2023-01-17T13:04:57.473Z,36.20
2023-01-17T13:07:48.840Z,35.10
2023-01-17T13:10:40.743Z,35.40
2023-01-17T13:13:23.973Z,31.42
2023-01-17T13:16:13.238Z,31.95
2023-01-17T13:18:46.927Z,34.00
2023-01-17T13:21:33.072Z,42.22
2023-01-17T13:24:01.932Z,31.35
2023-01-17T13:27:09.856Z,32.80
2023-01-17T13:29:56.691Z,34.25
2023-01-17T13:32:57.798Z,34.85
2023-01-17T13:35:51.783Z,33.63
2023-01-17T13:38:54.737Z,30.20
2023-01-17T13:41:43.136Z,29.67
2023-01-17T13:44:27.283Z,30.17
2023-01-17T13:47:08.094Z,28.45
2023-01-17T13:49:39.354Z,32.30
2023-01-17T13:52:09.695Z,29.45
2023-01-17T13:54:49.329Z,32.38
2023-01-17T14:00:23.092Z,33.28
2023-01-17T14:02:51.593Z,30.35
2023-01-17T14:05:42.062Z,29.17
2023-01-17T14:08:20.638Z,31.17
2023-01-17T14:10:53.517Z,26.48
2023-01-17T14:13:35.742Z,25.55
2023-01-17T14:16:08.330Z,29.35
2023-01-17T14:18:41.448Z,28.73
2023-01-17T14:21:27.509Z,37.60
2023-01-17T14:24:26.266Z,37.08
2023-01-17T14:26:59.418Z,40.85
2023-01-17T14:29:51.140Z,39.03
2023-01-17T14:32:21.885Z,30.90
2023-01-17T14:34:51.271Z,27.95
2023-01-17T14:37:38.444Z,23.00
2023-01-17T14:40:38.041Z,24.63
2023-01-17T14:43:15.003Z,21.45
2023-01-17T14:45:42.955Z,19.23
2023-01-17T14:48:19.694Z,18.70
2023-01-17T14:50:49.000Z,18.42
2023-01-17T14:53:32.584Z,19.30
2023-01-17T14:59:26.812Z,19.13
2023-01-17T15:02:07.943Z,20.40
2023-01-17T15:04:41.560Z,18.75
2023-01-17T15:07:15.825Z,19.50
2023-01-17T15:09:44.918Z,17.17
2023-01-17T15:12:16.654Z,21.13
2023-01-17T15:14:46.525Z,19.33
2023-01-17T15:17:24.408Z,19.45
2023-01-17T15:19:59.381Z,20.00
2023-01-17T15:22:27.343Z,20.38
2023-01-17T15:24:59.298Z,21.27
2023-01-17T15:27:26.910Z,22.40
2023-01-17T15:29:55.039Z,23.70
2023-01-17T15:32:24.278Z,30.05
2023-01-17T15:34:52.116Z,26.27
2023-01-17T15:37:31.212Z,27.42
2023-01-17T15:40:18.713Z,30.00
2023-01-17T15:43:06.677Z,32.03
2023-01-17T15:45:33.904Z,35.13
2023-01-17T15:48:46.021Z,33.20
2023-01-17T15:51:13.981Z,36.67
2023-01-17T15:53:42.853Z,32.42
2023-01-17T15:56:28.675Z,34.53
2023-01-17T15:59:33.713Z,32.95
2023-01-17T16:02:00.678Z,33.03
2023-01-17T16:04:45.481Z,31.58
2023-01-17T16:07:22.861Z,36.67
2023-01-17T16:10:12.515Z,33.30
2023-01-17T16:12:39.453Z,32.30
2023-01-17T16:15:18.304Z,26.17
2023-01-17T16:17:52.603Z,28.50
2023-01-17T16:20:22.621Z,29.48
2023-01-17T16:22:50.193Z,29.23
2023-01-17T16:25:32.578Z,29.17
2023-01-17T16:28:00.204Z,26.67
2023-01-17T16:30:28.530Z,28.50
2023-01-17T16:32:56.728Z,28.52
2023-01-17T16:35:33.158Z,30.15
2023-01-17T16:38:10.763Z,29.25
2023-01-17T16:40:44.381Z,33.10
2023-01-17T16:43:12.455Z,37.25
2023-01-17T16:45:42.582Z,38.60
2023-01-17T16:48:12.396Z,40.92
2023-01-17T16:50:53.268Z,46.42
2023-01-17T16:53:26.689Z,45.50
2023-01-17T16:55:59.130Z,44.70
2023-01-17T16:58:26.064Z,40.10
2023-01-17T17:00:55.170Z,33.17
2023-01-17T17:03:22.746Z,29.92
2023-01-17T17:05:59.540Z,28.55
2023-01-17T17:08:29.013Z,27.95
2023-01-17T17:11:17.356Z,27.58
2023-01-17T17:13:46.196Z,31.30
2023-01-17T17:16:16.084Z,29.38
2023-01-17T17:21:10.581Z,24.08
2023-01-17T17:23:37.598Z,25.35
2023-01-17T17:26:05.295Z,20.10
2023-01-17T17:28:32.149Z,21.60
2023-01-17T17:31:12.779Z,21.92
2023-01-17T17:33:39.774Z,21.33
2023-01-17T17:36:10.164Z,18.83
2023-01-17T17:38:51.092Z,20.23
2023-01-17T17:41:23.116Z,25.23
2023-01-17T17:43:51.378Z,26.42
2023-01-17T17:46:20.752Z,26.27
2023-01-17T17:48:48.343Z,30.50
2023-01-17T17:51:33.814Z,27.38
2023-01-17T17:54:08.498Z,24.40
2023-01-17T17:56:37.050Z,22.73
2023-01-17T17:59:05.382Z,25.38
2023-01-17T18:01:32.756Z,25.30
2023-01-17T18:04:03.164Z,25.05
2023-01-17T18:06:30.379Z,29.17
2023-01-17T18:08:57.202Z,25.45
2023-01-17T18:11:26.727Z,25.08
2023-01-17T18:13:55.361Z,26.73
2023-01-17T18:16:35.550Z,26.48
2023-01-17T18:19:03.824Z,27.55
2023-01-17T18:21:36.893Z,26.63
2023-01-17T18:24:10.306Z,26.77
2023-01-17T18:26:38.672Z,22.80
2023-01-17T18:29:07.913Z,31.10
2023-01-17T18:31:35.093Z,32.40
2023-01-17T18:34:05.899Z,31.38
2023-01-17T18:36:34.816Z,31.70
2023-01-17T18:39:03.789Z,25.60
2023-01-17T18:41:31.845Z,27.83
2023-01-17T18:43:58.770Z,27.10
2023-01-17T18:46:26.626Z,28.30
2023-01-17T18:48:57.130Z,28.35
2023-01-17T18:51:24.733Z,28.67
2023-01-17T18:53:53.001Z,32.58
2023-01-17T18:56:23.987Z,42.28
2023-01-17T18:58:50.994Z,45.33
2023-01-17T19:01:20.592Z,50.47
2023-01-17T19:06:18.588Z,50.63
2023-01-17T19:08:46.068Z,49.80
2023-01-17T19:11:12.984Z,51.65
2023-01-17T19:13:41.840Z,48.35
2023-01-17T19:16:14.514Z,51.20
2023-01-17T19:18:41.964Z,52.00
2023-01-17T19:21:13.985Z,45.78
2023-01-17T19:23:41.779Z,45.55
2023-01-17T19:26:09.540Z,50.70
2023-01-17T19:28:42.105Z,44.67
2023-01-17T19:31:12.877Z,45.25
2023-01-17T19:33:43.626Z,44.42
2023-01-17T19:36:18.694Z,46.35
2023-01-17T19:39:03.010Z,43.83
2023-01-17T19:41:32.234Z,43.25
2023-01-17T19:44:01.439Z,36.17
2023-01-17T19:46:28.392Z,35.28
2023-01-17T19:48:56.624Z,37.47
2023-01-17T19:51:24.940Z,37.92
2023-01-17T19:53:53.513Z,34.05
2023-01-17T19:56:23.975Z,34.72
2023-01-17T19:58:52.105Z,32.53
2023-01-17T20:01:26.529Z,34.03
2023-01-17T20:03:56.006Z,37.05
2023-01-17T20:06:27.036Z,38.60
2023-01-17T20:08:54.385Z,46.63
2023-01-17T20:11:23.277Z,42.90
2023-01-17T20:13:56.041Z,46.00
2023-01-17T20:16:24.701Z,43.97
2023-01-17T20:18:52.167Z,41.15
2023-01-17T20:21:24.742Z,40.70
2023-01-17T20:23:52.942Z,45.38
2023-01-17T20:26:25.515Z,40.85
2023-01-17T20:28:53.402Z,38.50
2023-01-17T20:31:24.982Z,38.72
2023-01-17T20:33:54.656Z,38.17
2023-01-17T20:36:25.904Z,39.35
2023-01-17T20:38:54.453Z,38.00
2023-01-17T20:41:24.062Z,39.00
2023-01-17T20:43:53.392Z,37.05
2023-01-17T20:46:22.709Z,38.05
2023-01-17T20:48:51.606Z,36.80
2023-01-17T20:51:19.804Z,33.80
2023-01-17T20:53:51.591Z,35.03
2023-01-17T20:56:18.863Z,32.63
2023-01-17T20:58:46.508Z,27.60
2023-01-17T21:01:19.707Z,28.23
2023-01-17T21:03:49.256Z,26.23
2023-01-17T21:06:16.181Z,23.65
2023-01-17T21:08:44.972Z,21.90
2023-01-17T21:11:15.117Z,20.50
2023-01-17T21:13:42.609Z,21.13
2023-01-17T21:16:12.743Z,20.63
2023-01-17T21:18:39.864Z,22.17
2023-01-17T21:21:11.785Z,22.83
2023-01-17T21:23:40.934Z,25.95
2023-01-17T21:26:10.588Z,29.13
2023-01-17T21:31:18.136Z,27.77
2023-01-17T21:33:45.622Z,28.90
2023-01-17T21:36:13.475Z,28.85
2023-01-17T21:38:40.486Z,27.67
2023-01-17T21:41:08.732Z,29.33
2023-01-17T21:43:35.594Z,30.23
2023-01-17T21:46:03.593Z,27.40
2023-01-17T21:48:30.628Z,28.13
2023-01-17T21:51:04.386Z,27.58
2023-01-17T21:53:33.154Z,26.60
2023-01-17T21:56:19.952Z,25.08
2023-01-17T21:58:49.258Z,25.73
2023-01-17T22:01:18.416Z,27.92
2023-01-17T22:03:49.247Z,24.02
2023-01-17T22:06:16.652Z,24.92
2023-01-17T22:08:43.980Z,25.95
2023-01-17T22:11:16.687Z,26.13
2023-01-17T22:13:45.126Z,27.10
2023-01-17T22:16:14.672Z,23.77
2023-01-17T22:18:43.187Z,25.27
2023-01-17T22:21:21.602Z,25.00
2023-01-17T22:23:52.198Z,24.80
2023-01-17T22:26:20.701Z,23.88
2023-01-17T22:28:47.763Z,22.65
2023-01-17T22:31:21.219Z,23.65
2023-01-17T22:33:53.435Z,24.02
2023-01-17T22:36:20.599Z,23.55
2023-01-17T22:38:47.506Z,23.45
2023-01-17T22:41:21.012Z,24.25
2023-01-17T22:43:51.136Z,23.00
2023-01-17T22:46:21.569Z,26.08
2023-01-17T22:48:49.036Z,22.60
2023-01-17T22:51:17.954Z,26.35
2023-01-17T22:53:52.999Z,26.48
2023-01-17T22:56:26.467Z,68.20
2023-01-17T22:58:53.479Z,54.03
2023-01-17T23:01:26.017Z,41.40
2023-01-17T23:03:58.812Z,34.88
2023-01-17T23:06:28.104Z,27.98
2023-01-17T23:08:57.078Z,26.67
2023-01-17T23:11:39.061Z,26.30
2023-01-17T23:14:15.151Z,33.25
2023-01-17T23:17:10.871Z,29.83
2023-01-17T23:19:40.649Z,31.48
2023-01-17T23:22:16.357Z,26.48
2023-01-17T23:24:44.700Z,27.13
2023-01-17T23:27:41.862Z,22.23
2023-01-17T23:30:10.938Z,22.83
2023-01-17T23:32:39.441Z,19.80
2023-01-17T23:35:07.065Z,18.38
2023-01-17T23:37:52.498Z,16.85
2023-01-17T23:40:20.207Z,16.65
2023-01-17T23:43:06.061Z,18.10
2023-01-17T23:45:39.411Z,15.52
2023-01-17T23:48:09.832Z,17.67
2023-01-17T23:50:42.008Z,17.95
2023-01-17T23:53:09.512Z,17.20
2023-01-17T23:55:41.372Z,18.05
2023-01-17T23:58:10.180Z,17.15
